»·PEaware :: N441PW CYXY-PAJN

N441PW :: CYXY-PAJN

FLIGHT INFORMATION

Flight Status: Arrived
Operator: Privately registered:
United States
More flights under this callsign
Pilot: Stacy K. (11621)
Aircraft: CESSNA 404 TITAN
(C404)
More flights by this aircraft type
Origin: CYXY Whitehorse Intl
Canada
Destination: PAJN Juneau Intl
United States
More flights between these airports :: More routes between these airports
Route: YXY HNS CGL
File this flight plan on PilotEdge
Remarks:
Altitude:
(Current/Filed)
9,500ft
Speed:
(Current/Filed)
190kts
Departed: 14-Jul-19 08:42 AM
Arrived: 14-Jul-19 09:35 AM
Distance/Time
Traveled:
142nm/0:53
Distance/Time
To Go:
Arrived

Flight Plot

Page will automatically refresh every two minutes.

Flight plan parsing failed; only flown route is shown


Map Options




Map Legend


Flown Route
Filed Route
Departure Airport
Arrival Airport
Navaid (VOR, NDB)
Fix

Horizontal Profiles

Position Reports

Time Latitude Longitude Heading Altitude Ground
Speed
14-Jul-19 08:35 60.714741 -135.075538 251 2321ft 0kts
14-Jul-19 08:36 60.714741 -135.075538 251 2321ft 0kts
14-Jul-19 08:37 60.714741 -135.075538 251 2321ft 0kts
14-Jul-19 08:38 60.714741 -135.075538 251 2321ft 0kts
14-Jul-19 08:39 60.714890 -135.074917 82 2321ft 16kts
14-Jul-19 08:40 60.719124 -135.076914 90 2321ft 13kts
14-Jul-19 08:41 60.706773 -135.064812 156 2682ft 97kts
14-Jul-19 08:42 60.674911 -135.042211 167 3792ft 145kts
14-Jul-19 08:43 60.631937 -135.023871 174 4804ft 167kts
14-Jul-19 08:44 60.594327 -134.974172 118 5601ft 167kts
14-Jul-19 08:45 60.558756 -134.920500 166 6404ft 163kts
14-Jul-19 08:46 60.513521 -134.918297 185 7208ft 164kts
14-Jul-19 08:47 60.468516 -134.932656 216 8003ft 165kts
14-Jul-19 08:48 60.438171 -135.002685 230 8821ft 166kts
14-Jul-19 08:49 60.408892 -135.076001 231 9476ft 174kts
14-Jul-19 08:50 60.376314 -135.157076 228 9502ft 191kts
14-Jul-19 08:51 60.328153 -135.200068 189 9508ft 195kts
14-Jul-19 08:52 60.273786 -135.212940 186 9507ft 197kts
14-Jul-19 08:53 60.219057 -135.224562 187 9508ft 197kts
14-Jul-19 08:54 60.164368 -135.236082 186 9503ft 197kts
14-Jul-19 08:55 60.109135 -135.247673 186 9504ft 199kts
14-Jul-19 08:56 60.053535 -135.259322 186 9503ft 201kts
14-Jul-19 08:57 59.998600 -135.270792 186 9516ft 197kts
14-Jul-19 08:58 59.943958 -135.282167 186 9520ft 196kts
14-Jul-19 08:59 59.889734 -135.293416 186 9523ft 196kts
14-Jul-19 09:00 59.835264 -135.304669 186 9527ft 196kts
14-Jul-19 09:01 59.788855 -135.314143 186 9501ft 197kts
14-Jul-19 09:02 59.747928 -135.322620 186 9502ft 197kts
14-Jul-19 09:03 59.693474 -135.333808 186 9509ft 196kts
14-Jul-19 09:04 59.637652 -135.345216 186 9035ft 209kts
14-Jul-19 09:05 59.579213 -135.357122 186 8352ft 211kts
14-Jul-19 09:06 59.520813 -135.368972 186 7669ft 210kts
14-Jul-19 09:07 59.462724 -135.380717 186 6985ft 208kts
14-Jul-19 09:08 59.405295 -135.392294 186 6303ft 207kts
14-Jul-19 09:09 59.348099 -135.403828 186 5664ft 203kts
14-Jul-19 09:10 59.293469 -135.414709 186 5378ft 199kts
14-Jul-19 09:11 59.237555 -135.425885 186 4754ft 203kts
14-Jul-19 09:12 59.183221 -135.406262 156 4131ft 203kts
14-Jul-19 09:13 59.131058 -135.365078 167 3546ft 201kts
14-Jul-19 09:14 59.077811 -135.347070 170 3500ft 190kts
14-Jul-19 09:15 59.024148 -135.327440 169 2955ft 200kts
14-Jul-19 09:16 58.969927 -135.306808 169 2601ft 192kts
14-Jul-19 09:17 58.916870 -135.285778 163 2152ft 197kts
14-Jul-19 09:18 58.866038 -135.248649 158 1804ft 191kts
14-Jul-19 09:19 58.817205 -135.212659 159 1803ft 186kts
14-Jul-19 09:20 58.768674 -135.177812 159 1805ft 186kts
14-Jul-19 09:21 58.720232 -135.143168 159 1806ft 186kts
14-Jul-19 09:22 58.671543 -135.108467 159 1803ft 186kts
14-Jul-19 09:23 58.623071 -135.074061 159 1802ft 186kts
14-Jul-19 09:24 58.574467 -135.039780 159 1797ft 186kts
14-Jul-19 09:25 58.525810 -135.005314 159 1800ft 186kts
14-Jul-19 09:26 58.496037 -134.984308 160 1802ft 186kts
14-Jul-19 09:27 58.447485 -134.950171 159 1799ft 186kts
14-Jul-19 09:28 58.398855 -134.916070 159 1805ft 186kts
14-Jul-19 09:29 58.350017 -134.883126 155 1806ft 186kts
14-Jul-19 09:30 58.340003 -134.810458 49 1992ft 179kts
14-Jul-19 09:31 58.356484 -134.726072 80 1023ft 166kts
14-Jul-19 09:32 58.358875 -134.645620 90 493ft 149kts
14-Jul-19 09:33 58.355654 -134.581327 101 26ft 70kts
14-Jul-19 09:34 58.356158 -134.576392 284 26ft 21kts
14-Jul-19 09:35 58.357811 -134.583178 275 26ft 11kts
14-Jul-19 09:36 58.358500 -134.583047 0 26ft 0kts
14-Jul-19 09:37 58.359514 -134.582603 91 26ft 0kts
14-Jul-19 09:38 58.359514 -134.582603 91 26ft 0kts
14-Jul-19 09:39 58.359514 -134.582603 91 26ft 0kts
14-Jul-19 09:40 58.359514 -134.582603 91 26ft 0kts
14-Jul-19 09:42 58.359514 -134.582603 91 26ft 0kts
14-Jul-19 09:43 58.359514 -134.582603 91 26ft 0kts
14-Jul-19 09:44 58.359514 -134.582603 91 26ft 0kts
14-Jul-19 09:45 58.359514 -134.582603 91 26ft 0kts
14-Jul-19 09:46 58.359514 -134.582603 91 26ft 0kts
14-Jul-19 09:47 58.359514 -134.582603 91 26ft 0kts
14-Jul-19 09:48 58.359514 -134.582603 91 26ft 0kts
14-Jul-19 09:49 58.359514 -134.582603 91 26ft 0kts

Navigation Log

Ident Type
Flight plan parsing failed, navigation log unavailable